Time;durP1;ratioP1;P1;durP2;ratioP2;P2;SDS_P1;SDS_P2;PMS_P1;PMS_P2;Temp;Humidity;BMP_temperature;BMP_pressure;BME280_temperature;BME280_humidity;BME280_pressure;Samples;Min_cycle;Max_cycle;Signal;HPM_P1;HPM_P2
2022/06/09 00:01:55;;;;;;;25.77;12.80;;;15.10;99.90;;;;;;5065011;28;20390;-74
2022/06/09 00:04:30;;;;;;;23.45;12.10;;;15.10;99.90;;;;;;5048087;28;20045;-74
2022/06/09 00:07:04;;;;;;;24.77;12.15;;;15.10;99.90;;;;;;5048225;28;20052;-73
2022/06/09 00:09:37;;;;;;;27.85;12.32;;;15.10;99.90;;;;;;5051594;28;20048;-73
2022/06/09 00:12:03;;;;;;;27.00;13.05;;;15.10;99.90;;;;;;5049189;28;20497;-73
2022/06/09 00:14:30;;;;;;;29.52;13.20;;;15.10;99.90;;;;;;5050659;28;20072;-74
2022/06/09 00:16:56;;;;;;;31.38;14.77;;;15.10;99.90;;;;;;5053389;28;20042;-74
2022/06/09 00:19:22;;;;;;;29.63;14.40;;;15.10;99.90;;;;;;5050308;28;20135;-73
2022/06/09 00:21:48;;;;;;;39.72;14.93;;;15.20;99.90;;;;;;5031861;28;20056;-73
2022/06/09 00:24:14;;;;;;;31.52;15.43;;;15.20;99.90;;;;;;5051873;28;20053;-73
2022/06/09 00:26:40;;;;;;;39.88;16.40;;;15.10;99.90;;;;;;5051466;28;20141;-73
2022/06/09 00:29:06;;;;;;;36.90;15.95;;;15.20;99.90;;;;;;5061552;28;20128;-73
2022/06/09 00:31:33;;;;;;;43.63;18.52;;;15.10;99.90;;;;;;5022310;28;20053;-73
2022/06/09 00:33:59;;;;;;;43.88;18.27;;;15.20;99.90;;;;;;5043354;28;20053;-74
2022/06/09 00:36:25;;;;;;;48.80;19.15;;;15.20;99.90;;;;;;5070053;28;20099;-73
2022/06/09 00:38:51;;;;;;;45.55;18.67;;;15.20;99.90;;;;;;5066085;28;20040;-73
2022/06/09 00:41:17;;;;;;;48.80;18.48;;;15.10;99.90;;;;;;5033279;28;20504;-73
2022/06/09 00:43:44;;;;;;;45.97;17.33;;;15.10;99.90;;;;;;5060087;28;20059;-74
2022/06/09 00:46:13;;;;;;;54.05;18.30;;;15.10;99.90;;;;;;5027209;28;20052;-73
2022/06/09 00:48:50;;;;;;;42.42;16.50;;;15.00;99.90;;;;;;5084068;28;20051;-73
2022/06/09 00:51:43;;;;;;;50.97;16.73;;;15.00;99.90;;;;;;5050910;28;20049;-73
2022/06/09 00:54:18;;;;;;;44.08;16.38;;;15.00;99.90;;;;;;5050840;28;20049;-74
2022/06/09 00:56:53;;;;;;;42.60;15.75;;;14.90;99.90;;;;;;5052664;28;20366;-73
2022/06/09 00:59:22;;;;;;;46.40;15.68;;;14.90;99.90;;;;;;5082517;28;20115;-73
2022/06/09 01:01:48;;;;;;;37.63;15.88;;;14.80;99.90;;;;;;5059997;28;20048;-73
2022/06/09 01:04:17;;;;;;;38.38;15.35;;;14.80;99.90;;;;;;5035677;28;20052;-73
2022/06/09 01:06:56;;;;;;;48.42;15.48;;;14.80;99.90;;;;;;5034679;28;20409;-73
2022/06/09 01:09:24;;;;;;;42.15;15.70;;;14.80;99.90;;;;;;5031583;28;20046;-73
2022/06/09 01:11:52;;;;;;;45.67;15.15;;;14.70;99.90;;;;;;5049062;28;20106;-74
2022/06/09 01:14:22;;;;;;;43.70;15.38;;;14.70;99.90;;;;;;5078984;28;20053;-74
2022/06/09 01:17:20;;;;;;;42.03;15.50;;;14.70;99.90;;;;;;5085309;28;20052;-74
2022/06/09 01:19:55;;;;;;;49.92;15.40;;;14.70;99.90;;;;;;5059165;28;20473;-73
2022/06/09 01:22:36;;;;;;;45.65;14.80;;;14.70;99.90;;;;;;5066620;28;20774;-74
2022/06/09 01:25:17;;;;;;;48.73;15.50;;;14.70;99.90;;;;;;5065378;28;20047;-74
2022/06/09 01:28:06;;;;;;;40.30;14.07;;;14.70;99.90;;;;;;5067788;28;20312;-74
2022/06/09 01:30:46;;;;;;;51.03;15.40;;;14.60;99.90;;;;;;5014129;28;20134;-74
2022/06/09 01:33:18;;;;;;;45.83;14.75;;;14.70;99.90;;;;;;5051242;28;20049;-74
2022/06/09 01:36:07;;;;;;;51.72;15.20;;;14.70;99.90;;;;;;5047876;28;20509;-74
2022/06/09 01:38:52;;;;;;;52.95;15.10;;;14.60;99.90;;;;;;5035071;28;20050;-73
2022/06/09 01:41:20;;;;;;;50.05;15.35;;;14.60;99.90;;;;;;5046654;28;20169;-73
2022/06/09 01:43:47;;;;;;;41.30;14.52;;;14.60;99.90;;;;;;5049907;28;20114;-74
2022/06/09 01:46:35;;;;;;;41.92;13.55;;;14.60;99.90;;;;;;5052432;28;20531;-73
2022/06/09 01:49:10;;;;;;;48.83;14.68;;;14.70;99.90;;;;;;5034385;28;20041;-73
2022/06/09 01:51:40;;;;;;;43.00;13.75;;;14.60;99.90;;;;;;5031377;28;20053;-74
2022/06/09 01:54:15;;;;;;;46.20;14.43;;;14.70;99.90;;;;;;5041856;28;20077;-74
2022/06/09 01:56:49;;;;;;;46.58;14.25;;;14.70;99.90;;;;;;5049882;28;20202;-74
2022/06/09 01:59:27;;;;;;;57.50;15.32;;;14.70;99.90;;;;;;5081300;28;20489;-74
2022/06/09 02:02:03;;;;;;;45.20;14.45;;;14.70;99.90;;;;;;5050990;28;20098;-74
2022/06/09 02:04:39;;;;;;;35.63;13.82;;;14.60;99.90;;;;;;5038342;28;20414;-75
2022/06/09 02:07:08;;;;;;;49.28;15.48;;;14.70;99.90;;;;;;5031560;28;20056;-74
2022/06/09 02:09:37;;;;;;;46.50;15.50;;;14.70;99.90;;;;;;5045513;28;20056;-74
2022/06/09 02:12:10;;;;;;;48.22;14.75;;;14.60;99.90;;;;;;5059813;28;20049;-75
2022/06/09 02:14:38;;;;;;;46.33;14.65;;;14.70;99.90;;;;;;5035381;28;20048;-73
2022/06/09 02:17:07;;;;;;;41.97;14.98;;;14.80;99.90;;;;;;5054905;28;20489;-73
2022/06/09 02:19:35;;;;;;;44.53;15.88;;;14.70;99.90;;;;;;5030718;28;20092;-73
2022/06/09 02:22:04;;;;;;;51.33;14.70;;;14.70;99.90;;;;;;5055571;28;20119;-73
2022/06/09 02:24:32;;;;;;;43.80;15.27;;;14.70;99.90;;;;;;5053253;28;20573;-73
2022/06/09 02:26:58;;;;;;;46.78;15.13;;;14.70;99.90;;;;;;5042660;28;20098;-74
2022/06/09 02:29:24;;;;;;;41.38;15.38;;;14.70;99.90;;;;;;5056833;28;20126;-73
2022/06/09 02:31:51;;;;;;;49.97;16.85;;;14.70;99.90;;;;;;5061456;28;20557;-76
2022/06/09 02:34:17;;;;;;;46.33;15.98;;;14.60;99.90;;;;;;5044060;28;20064;-73
2022/06/09 02:36:43;;;;;;;55.47;16.73;;;14.60;99.90;;;;;;5042665;28;20048;-73
2022/06/09 02:39:09;;;;;;;40.20;15.88;;;14.50;99.90;;;;;;5028339;28;20056;-73
2022/06/09 02:41:35;;;;;;;38.65;15.50;;;14.50;99.90;;;;;;5048983;28;20523;-74
2022/06/09 02:44:01;;;;;;;49.42;16.80;;;14.50;99.90;;;;;;5067517;28;20099;-74
2022/06/09 02:46:27;;;;;;;49.42;16.30;;;14.40;99.90;;;;;;5014435;28;20103;-74
2022/06/09 02:48:53;;;;;;;52.88;16.92;;;14.30;99.90;;;;;;5063794;28;20056;-73
2022/06/09 02:51:25;;;;;;;49.08;16.08;;;14.30;99.90;;;;;;5056699;28;20060;-74
2022/06/09 02:53:56;;;;;;;51.08;17.00;;;14.30;99.90;;;;;;5050700;28;20041;-74
2022/06/09 02:56:23;;;;;;;48.58;17.80;;;14.30;99.90;;;;;;5054919;28;20049;-73
2022/06/09 02:58:48;;;;;;;55.15;18.30;;;14.30;99.90;;;;;;5067065;28;20508;-74
2022/06/09 03:01:14;;;;;;;46.35;16.85;;;14.30;99.90;;;;;;5034260;28;20041;-74
2022/06/09 03:03:41;;;;;;;50.30;17.75;;;14.30;99.90;;;;;;4955487;28;20057;-73
2022/06/09 03:06:07;;;;;;;64.35;18.90;;;14.30;99.90;;;;;;5062362;28;20394;-74
2022/06/09 03:08:33;;;;;;;46.67;17.95;;;14.40;99.90;;;;;;5054405;28;20049;-74
2022/06/09 03:10:59;;;;;;;47.83;18.42;;;14.30;99.90;;;;;;5040106;28;20054;-74
2022/06/09 03:13:25;;;;;;;52.30;18.98;;;14.40;99.90;;;;;;5041089;28;20045;-73
2022/06/09 03:15:51;;;;;;;48.47;17.60;;;14.30;99.90;;;;;;5053605;28;20521;-73
2022/06/09 03:18:18;;;;;;;45.22;17.13;;;14.40;99.90;;;;;;5024584;28;20127;-73
2022/06/09 03:20:45;;;;;;;44.08;18.65;;;14.40;99.90;;;;;;5057327;28;20052;-73
2022/06/09 03:23:11;;;;;;;50.60;16.98;;;14.40;99.90;;;;;;5060436;28;20049;-74
2022/06/09 03:25:37;;;;;;;38.83;16.67;;;14.40;99.90;;;;;;5038882;28;20045;-73
2022/06/09 03:28:05;;;;;;;44.63;17.70;;;14.40;99.90;;;;;;5056295;28;20054;-74
2022/06/09 03:30:37;;;;;;;46.38;18.80;;;14.40;99.90;;;;;;5059679;28;20505;-73
2022/06/09 03:33:03;;;;;;;44.85;17.83;;;14.50;99.90;;;;;;5062117;28;20040;-74
2022/06/09 03:35:30;;;;;;;42.03;17.48;;;14.40;99.90;;;;;;5081160;28;20127;-73
2022/06/09 03:37:56;;;;;;;48.30;17.95;;;14.50;99.90;;;;;;5047758;28;20047;-74
2022/06/09 03:40:24;;;;;;;50.78;17.02;;;14.50;99.90;;;;;;5025561;28;20044;-75
2022/06/09 03:42:50;;;;;;;48.28;18.08;;;14.50;99.90;;;;;;5037630;28;20052;-73
2022/06/09 03:45:16;;;;;;;46.80;16.67;;;14.50;99.90;;;;;;5035413;28;20041;-74
2022/06/09 03:47:42;;;;;;;45.97;17.17;;;14.40;99.90;;;;;;5017875;28;20468;-74
2022/06/09 03:50:15;;;;;;;46.00;17.77;;;14.50;99.90;;;;;;5040807;28;20049;-74
2022/06/09 03:52:40;;;;;;;47.72;16.98;;;14.50;99.90;;;;;;5054880;28;20401;-74
2022/06/09 03:55:07;;;;;;;48.30;17.88;;;14.50;99.90;;;;;;5065000;28;20037;-74
2022/06/09 03:57:32;;;;;;;41.58;16.83;;;14.50;99.90;;;;;;5055011;28;21113;-75
2022/06/09 03:59:58;;;;;;;52.17;18.52;;;14.50;99.90;;;;;;5044691;28;20078;-74
2022/06/09 04:02:24;;;;;;;43.30;18.48;;;14.50;99.90;;;;;;5062572;28;20139;-74
2022/06/09 04:04:52;;;;;;;48.92;17.83;;;14.50;99.90;;;;;;5047326;28;20080;-74
2022/06/09 04:07:18;;;;;;;45.40;17.83;;;14.50;99.90;;;;;;5045785;28;20445;-74
2022/06/09 04:09:44;;;;;;;45.50;18.30;;;14.50;99.90;;;;;;5044969;28;20044;-74
2022/06/09 04:12:10;;;;;;;48.42;19.33;;;14.60;99.90;;;;;;5065300;28;20558;-74
2022/06/09 04:14:36;;;;;;;47.78;19.13;;;14.60;99.90;;;;;;5045911;28;20135;-74
2022/06/09 04:17:02;;;;;;;45.00;18.48;;;14.60;99.90;;;;;;5047898;28;20044;-73
2022/06/09 04:19:28;;;;;;;44.28;18.30;;;14.60;99.90;;;;;;5044621;28;20507;-74
2022/06/09 04:21:54;;;;;;;43.63;18.52;;;14.60;99.90;;;;;;5060878;28;20044;-74
2022/06/09 04:24:20;;;;;;;39.00;16.33;;;14.70;99.90;;;;;;5057345;28;20044;-73
2022/06/09 04:26:47;;;;;;;42.50;17.10;;;14.60;99.90;;;;;;5061075;28;20048;-73
2022/06/09 04:29:13;;;;;;;40.13;18.63;;;14.60;99.90;;;;;;5065719;28;20509;-73
2022/06/09 04:31:41;;;;;;;36.30;16.55;;;14.70;99.90;;;;;;5063266;28;20036;-73
2022/06/09 04:34:07;;;;;;;44.47;19.20;;;14.70;99.90;;;;;;5047494;28;20041;-74
2022/06/09 04:36:34;;;;;;;43.97;18.23;;;14.60;99.90;;;;;;5061783;28;20049;-73
2022/06/09 04:39:00;;;;;;;44.80;19.15;;;14.80;99.90;;;;;;5058968;28;20370;-73
2022/06/09 04:41:26;;;;;;;39.42;18.58;;;14.80;99.90;;;;;;5060895;28;20476;-73
2022/06/09 04:43:52;;;;;;;44.58;18.38;;;14.80;99.90;;;;;;5066466;28;20127;-73
2022/06/09 04:46:22;;;;;;;43.67;18.13;;;14.80;99.90;;;;;;5054441;28;20048;-74
2022/06/09 04:48:48;;;;;;;43.42;18.90;;;14.70;99.90;;;;;;5063926;28;20049;-74
2022/06/09 04:51:18;;;;;;;37.67;19.15;;;14.80;99.90;;;;;;5045296;28;20558;-73
2022/06/09 04:53:45;;;;;;;37.03;17.17;;;14.80;99.90;;;;;;5058855;28;20147;-74
2022/06/09 04:56:12;;;;;;;44.75;19.60;;;14.80;99.90;;;;;;5039210;28;20485;-74
2022/06/09 04:58:38;;;;;;;41.35;17.90;;;14.80;99.90;;;;;;5062614;28;20045;-75
2022/06/09 05:01:05;;;;;;;41.25;19.58;;;14.90;99.90;;;;;;5077931;28;20051;-74
2022/06/09 05:03:32;;;;;;;45.92;19.77;;;14.90;99.90;;;;;;5060313;28;20047;-74
2022/06/09 05:05:59;;;;;;;40.72;19.13;;;14.90;99.90;;;;;;5052401;28;20071;-75
2022/06/09 05:08:25;;;;;;;38.72;18.77;;;15.00;99.90;;;;;;5054502;28;20047;-74
2022/06/09 05:10:51;;;;;;;41.15;20.00;;;15.10;99.90;;;;;;5050137;28;20072;-74
2022/06/09 05:13:17;;;;;;;42.65;20.80;;;15.10;99.90;;;;;;5063752;28;20051;-74
2022/06/09 05:15:53;;;;;;;44.30;21.27;;;15.10;99.90;;;;;;5045023;28;20476;-75
2022/06/09 05:18:21;;;;;;;39.53;20.20;;;15.20;99.90;;;;;;5056602;28;20080;-74
2022/06/09 05:20:48;;;;;;;42.35;22.42;;;15.20;99.90;;;;;;5076310;28;20048;-74
2022/06/09 05:23:14;;;;;;;43.92;22.65;;;15.20;99.90;;;;;;5059301;28;20064;-75
2022/06/09 05:25:40;;;;;;;47.88;22.83;;;15.20;99.90;;;;;;5058086;28;20876;-74
2022/06/09 05:28:06;;;;;;;48.17;21.27;;;15.20;99.90;;;;;;5053044;28;20067;-73
2022/06/09 05:30:32;;;;;;;49.65;22.02;;;15.10;99.90;;;;;;5052105;28;20053;-74
2022/06/09 05:32:58;;;;;;;44.28;21.38;;;15.20;99.90;;;;;;5074306;28;20494;-74
2022/06/09 05:35:24;;;;;;;46.70;21.67;;;15.20;99.90;;;;;;5043335;28;20052;-74
2022/06/09 05:46:06;;;;;;;44.53;21.13;;;15.30;99.90;;;;;;5052235;28;20538;-74
2022/06/09 05:48:33;;;;;;;34.65;20.35;;;15.30;99.90;;;;;;5051689;28;20147;-74
2022/06/09 05:51:00;;;;;;;38.15;18.88;;;15.40;99.90;;;;;;5042229;28;20132;-74
2022/06/09 05:53:27;;;;;;;38.85;20.75;;;15.40;99.90;;;;;;5057582;28;20048;-74
2022/06/09 05:55:53;;;;;;;38.55;21.27;;;15.50;99.90;;;;;;5047190;28;20048;-74
2022/06/09 05:58:22;;;;;;;37.63;20.65;;;15.60;99.90;;;;;;5061041;28;20056;-75
2022/06/09 06:00:49;;;;;;;42.95;22.33;;;15.60;99.90;;;;;;5055669;28;20057;-75
2022/06/09 06:03:16;;;;;;;43.97;21.75;;;15.60;99.90;;;;;;5045614;28;20048;-75
2022/06/09 06:08:26;;;;;;;36.00;19.42;;;15.80;99.90;;;;;;5079552;28;20041;-75
2022/06/09 06:10:53;;;;;;;40.90;21.30;;;15.80;99.90;;;;;;5038094;28;20507;-74
2022/06/09 06:13:19;;;;;;;42.75;22.50;;;15.90;99.90;;;;;;5044840;28;20077;-74
2022/06/09 06:15:45;;;;;;;38.60;20.80;;;16.00;99.90;;;;;;5041859;28;20049;-74
2022/06/09 06:18:12;;;;;;;44.72;20.92;;;16.10;99.90;;;;;;5044856;28;20102;-74
2022/06/09 06:20:38;;;;;;;41.28;20.88;;;16.10;99.90;;;;;;5060912;28;20132;-74
2022/06/09 06:23:03;;;;;;;42.00;21.20;;;16.10;99.90;;;;;;5041214;28;20060;-75
2022/06/09 06:25:30;;;;;;;35.92;19.00;;;16.10;99.90;;;;;;5074948;28;20037;-74
2022/06/09 06:27:57;;;;;;;37.88;21.33;;;16.10;99.90;;;;;;5058443;28;20044;-74
2022/06/09 06:30:23;;;;;;;34.63;19.10;;;16.20;99.90;;;;;;5055714;28;20462;-74
2022/06/09 06:32:50;;;;;;;37.55;20.13;;;16.10;99.90;;;;;;5059617;28;20044;-74
2022/06/09 06:35:17;;;;;;;33.92;19.88;;;16.10;99.90;;;;;;5078659;28;20072;-75
2022/06/09 06:37:43;;;;;;;35.92;19.10;;;16.00;99.90;;;;;;5078402;28;20041;-74
2022/06/09 06:40:13;;;;;;;35.08;18.08;;;15.90;99.90;;;;;;5057654;28;20435;-75
2022/06/09 06:42:39;;;;;;;31.73;16.77;;;15.90;99.90;;;;;;5055206;28;20173;-74
2022/06/09 06:45:06;;;;;;;34.70;19.65;;;15.90;99.90;;;;;;5043893;28;20067;-74
2022/06/09 06:47:32;;;;;;;30.13;13.93;;;15.90;99.90;;;;;;5044261;28;20400;-74
2022/06/09 06:49:58;;;;;;;37.58;19.45;;;15.80;99.90;;;;;;5059566;28;20044;-74
2022/06/09 06:52:24;;;;;;;41.85;21.65;;;15.70;99.90;;;;;;5044515;28;20052;-76
2022/06/09 06:54:50;;;;;;;35.15;18.98;;;15.80;99.90;;;;;;5058277;28;20033;-74
2022/06/09 06:57:16;;;;;;;41.67;22.35;;;15.50;99.90;;;;;;5044853;28;20061;-74
2022/06/09 06:59:42;;;;;;;36.25;20.17;;;15.90;99.90;;;;;;5036684;28;20396;-74
2022/06/09 07:02:11;;;;;;;34.85;20.15;;;16.00;99.90;;;;;;5042871;28;20454;-74
2022/06/09 07:04:37;;;;;;;33.20;19.83;;;16.20;99.90;;;;;;5060101;28;20412;-74
2022/06/09 07:07:03;;;;;;;38.03;20.58;;;16.30;99.90;;;;;;5057820;28;20123;-75
2022/06/09 07:09:29;;;;;;;33.42;18.67;;;16.40;99.90;;;;;;5048304;28;20093;-75
2022/06/09 07:11:55;;;;;;;34.50;19.75;;;16.30;99.90;;;;;;5058502;28;20501;-75
2022/06/09 07:14:21;;;;;;;34.78;19.60;;;16.40;99.90;;;;;;5039066;28;20099;-74
2022/06/09 07:16:47;;;;;;;32.72;20.85;;;16.70;99.90;;;;;;5064476;28;20037;-74
2022/06/09 07:19:15;;;;;;;32.13;20.13;;;16.90;99.90;;;;;;5052584;28;20049;-76
2022/06/09 07:21:41;;;;;;;29.48;18.52;;;17.10;99.90;;;;;;5057082;28;20443;-74
2022/06/09 07:24:07;;;;;;;27.48;17.08;;;17.10;99.90;;;;;;5081744;28;20048;-75
2022/06/09 07:26:33;;;;;;;27.73;17.10;;;17.00;99.90;;;;;;5077132;28;20137;-74
2022/06/09 07:28:59;;;;;;;28.08;17.15;;;16.90;99.90;;;;;;5068364;28;20041;-76
2022/06/09 07:31:26;;;;;;;25.42;16.98;;;17.10;99.90;;;;;;5063207;28;20131;-75
2022/06/09 07:33:52;;;;;;;23.92;15.27;;;17.30;99.90;;;;;;5041842;28;20057;-75
2022/06/09 07:36:20;;;;;;;24.17;16.77;;;17.20;99.90;;;;;;5057509;28;20132;-75
2022/06/09 07:38:47;;;;;;;24.23;16.60;;;17.30;99.90;;;;;;5063634;28;20469;-75
2022/06/09 07:41:13;;;;;;;26.27;17.83;;;17.50;99.90;;;;;;5061812;28;20048;-75
2022/06/09 07:43:39;;;;;;;22.52;15.48;;;17.40;99.90;;;;;;5033907;28;20115;-74
2022/06/09 07:46:04;;;;;;;21.70;15.20;;;17.60;99.90;;;;;;5060160;28;20124;-75
2022/06/09 07:48:30;;;;;;;22.65;16.02;;;17.70;99.90;;;;;;5054395;28;20041;-75
2022/06/09 07:50:57;;;;;;;22.05;15.23;;;17.70;99.90;;;;;;5050174;28;20095;-74
2022/06/09 07:53:24;;;;;;;20.95;14.57;;;17.60;99.90;;;;;;5082810;28;20115;-75
2022/06/09 07:55:51;;;;;;;21.00;14.95;;;17.50;99.90;;;;;;5041337;28;20052;-75
2022/06/09 07:58:18;;;;;;;18.02;11.50;;;17.60;99.90;;;;;;5066169;28;20132;-76
2022/06/09 08:00:45;;;;;;;20.85;14.63;;;17.80;99.90;;;;;;5066310;28;20998;-74
2022/06/09 08:03:18;;;;;;;20.25;12.95;;;18.20;99.90;;;;;;5049409;28;20048;-75
2022/06/09 08:05:44;;;;;;;17.58;13.10;;;18.10;99.90;;;;;;5039491;28;20051;-74
2022/06/09 08:08:09;;;;;;;15.90;11.68;;;18.10;99.90;;;;;;5050121;28;20041;-74
2022/06/09 08:10:36;;;;;;;13.15;9.52;;;18.30;99.90;;;;;;5032953;28;20041;-75
2022/06/09 08:13:03;;;;;;;15.77;11.38;;;18.50;99.90;;;;;;5050178;28;20055;-75
2022/06/09 08:15:31;;;;;;;19.30;12.32;;;18.50;99.90;;;;;;5079913;28;20102;-75
2022/06/09 08:17:59;;;;;;;16.48;11.60;;;18.30;99.90;;;;;;5065585;28;20102;-74
2022/06/09 08:20:28;;;;;;;15.38;11.52;;;18.30;99.90;;;;;;5053594;28;20055;-76
2022/06/09 08:23:08;;;;;;;13.10;8.85;;;18.40;99.90;;;;;;5051347;28;20049;-74
2022/06/09 08:25:35;;;;;;;10.32;7.57;;;18.50;99.90;;;;;;5058191;28;20051;-73
2022/06/09 08:28:03;;;;;;;13.70;7.63;;;18.80;99.90;;;;;;5045910;28;20390;-74
2022/06/09 08:30:31;;;;;;;10.55;8.00;;;18.90;99.90;;;;;;5052753;28;20049;-77
2022/06/09 08:32:57;;;;;;;10.52;7.63;;;18.80;99.90;;;;;;5053547;28;20045;-73
2022/06/09 08:35:25;;;;;;;11.55;7.80;;;18.80;99.90;;;;;;5041566;28;20505;-73
2022/06/09 08:37:51;;;;;;;13.07;9.23;;;18.90;99.90;;;;;;5048695;28;20044;-76
2022/06/09 08:40:31;;;;;;;8.35;6.72;;;19.00;99.90;;;;;;5049789;28;20036;-74
2022/06/09 08:43:14;;;;;;;10.00;6.47;;;18.90;99.90;;;;;;5062987;28;20049;-74
2022/06/09 08:45:42;;;;;;;7.95;5.30;;;19.00;99.90;;;;;;5044388;28;20057;-74
2022/06/09 08:48:19;;;;;;;5.13;4.60;;;18.80;99.90;;;;;;5053710;28;20060;-75
2022/06/09 08:51:01;;;;;;;6.25;4.68;;;19.10;99.90;;;;;;5052214;28;20057;-75
2022/06/09 08:53:37;;;;;;;6.55;5.45;;;19.30;99.90;;;;;;5086239;28;20049;-74
2022/06/09 08:56:27;;;;;;;7.25;4.70;;;19.40;99.90;;;;;;5061326;28;20048;-74
2022/06/09 08:59:02;;;;;;;7.88;4.97;;;19.50;99.90;;;;;;5047321;28;20049;-74
2022/06/09 09:01:50;;;;;;;6.22;4.97;;;19.30;99.90;;;;;;5059216;28;20062;-75
2022/06/09 09:04:21;;;;;;;7.07;5.03;;;19.30;99.90;;;;;;5078584;28;20389;-75
2022/06/09 09:06:54;;;;;;;6.45;3.58;;;19.70;99.90;;;;;;5045374;28;20048;-75
2022/06/09 09:09:28;;;;;;;6.78;2.70;;;20.00;99.90;;;;;;5053966;28;20102;-75
2022/06/09 09:12:01;;;;;;;4.15;2.72;;;20.30;99.90;;;;;;5056290;28;20052;-76
2022/06/09 09:14:55;;;;;;;4.47;2.83;;;20.00;99.90;;;;;;5061321;28;20044;-75
2022/06/09 09:17:47;;;;;;;4.22;2.20;;;20.00;99.90;;;;;;5028786;28;20282;-76
2022/06/09 09:20:35;;;;;;;2.38;1.75;;;20.20;99.90;;;;;;5066618;28;20044;-74
2022/06/09 09:23:17;;;;;;;3.65;1.88;;;20.40;99.90;;;;;;5061705;28;20431;-76
2022/06/09 09:26:17;;;;;;;3.28;1.92;;;20.40;99.90;;;;;;5060451;28;20049;-75
2022/06/09 09:28:55;;;;;;;5.25;2.30;;;20.00;99.90;;;;;;5060325;28;20048;-75
2022/06/09 09:31:47;;;;;;;4.30;2.00;;;20.00;99.90;;;;;;5036942;28;20041;-77
2022/06/09 09:34:22;;;;;;;7.10;1.90;;;20.20;99.90;;;;;;5064969;28;20101;-75
2022/06/09 09:37:01;;;;;;;2.97;1.95;;;20.40;99.90;;;;;;5049028;28;20049;-77
2022/06/09 09:39:40;;;;;;;4.75;2.22;;;20.00;99.90;;;;;;5035897;28;20097;-74
2022/06/09 09:42:16;;;;;;;2.97;1.95;;;20.20;99.90;;;;;;5081035;28;20094;-75
2022/06/09 09:44:57;;;;;;;4.03;1.50;;;20.00;99.90;;;;;;5056059;28;20103;-75
2022/06/09 09:47:26;;;;;;;4.70;1.60;;;20.20;99.90;;;;;;5058730;28;20041;-75
2022/06/09 09:49:53;;;;;;;3.35;1.40;;;20.30;99.90;;;;;;5055433;28;20044;-76
2022/06/09 09:52:37;;;;;;;3.20;1.42;;;20.60;99.90;;;;;;5054146;28;20076;-77
2022/06/09 09:55:22;;;;;;;2.53;1.15;;;20.30;99.90;;;;;;5053997;28;20045;-76
2022/06/09 09:58:24;;;;;;;2.65;1.20;;;20.30;99.90;;;;;;5056364;28;20060;-76
2022/06/09 10:01:00;;;;;;;3.67;1.40;;;20.50;99.90;;;;;;5053929;28;20064;-76
2022/06/09 10:09:26;;;;;;;4.50;1.38;;;20.30;99.90;;;;;;5076614;28;20108;-74
2022/06/09 10:11:59;;;;;;;3.78;1.40;;;20.10;99.90;;;;;;5034368;28;20037;-75
2022/06/09 10:14:43;;;;;;;3.25;1.23;;;20.40;99.90;;;;;;5053067;28;20051;-75
2022/06/09 10:17:36;;;;;;;7.00;1.50;;;20.60;99.90;;;;;;5075674;28;20053;-76
2022/06/09 10:20:14;;;;;;;3.30;1.30;;;21.10;99.90;;;;;;5054435;28;20041;-76
2022/06/09 10:22:54;;;;;;;3.90;1.08;;;21.10;99.90;;;;;;5057345;28;20160;-77
2022/06/09 10:25:30;;;;;;;4.03;0.98;;;21.20;99.90;;;;;;5079034;28;20047;-75
2022/06/09 10:28:47;;;;;;;3.33;1.10;;;21.30;99.90;;;;;;5075707;28;20131;-75
2022/06/09 10:31:34;;;;;;;3.88;1.27;;;21.30;99.90;;;;;;5074117;28;20670;-74
2022/06/09 10:34:14;;;;;;;3.60;1.20;;;21.40;99.90;;;;;;5062592;28;20037;-74
2022/06/09 10:36:45;;;;;;;2.70;1.20;;;21.10;99.90;;;;;;5077312;28;20060;-75
2022/06/09 10:39:15;;;;;;;3.60;1.30;;;20.80;99.90;;;;;;5074978;28;20132;-75
2022/06/09 10:41:51;;;;;;;4.38;1.30;;;20.40;99.90;;;;;;5050235;28;20057;-76
2022/06/09 10:44:26;;;;;;;4.90;1.50;;;20.70;99.90;;;;;;5046792;28;20091;-76
2022/06/09 10:56:38;;;;;;;2.85;1.50;;;21.50;99.90;;;;;;5077062;28;20049;-75
2022/06/09 10:59:25;;;;;;;4.47;1.50;;;21.30;99.90;;;;;;5048405;28;20080;-75
2022/06/09 11:01:51;;;;;;;3.08;1.65;;;20.80;99.90;;;;;;5048181;28;20045;-76
2022/06/09 11:04:18;;;;;;;5.00;1.70;;;20.50;99.90;;;;;;5050173;28;20477;-74
2022/06/09 11:07:08;;;;;;;5.18;1.50;;;20.20;99.90;;;;;;5048946;28;20140;-75
2022/06/09 11:09:47;;;;;;;2.97;1.90;;;20.00;99.90;;;;;;5048774;28;20504;-75
2022/06/09 11:12:19;;;;;;;6.45;1.58;;;20.40;99.90;;;;;;5077567;28;20056;-75
2022/06/09 11:15:10;;;;;;;4.60;1.60;;;20.90;99.90;;;;;;5059010;28;20041;-76
2022/06/09 11:18:03;;;;;;;2.47;1.25;;;21.20;99.90;;;;;;5059056;28;20051;-75
2022/06/09 11:20:59;;;;;;;6.00;1.42;;;21.10;99.90;;;;;;5060695;28;20387;-76
2022/06/09 11:23:31;;;;;;;3.42;1.10;;;20.80;99.90;;;;;;5033506;28;20056;-75
2022/06/09 11:26:23;;;;;;;5.05;1.27;;;21.00;99.90;;;;;;5044073;28;20611;-75
2022/06/09 11:29:04;;;;;;;4.45;1.40;;;21.20;99.90;;;;;;5041869;28;20053;-74
2022/06/09 11:31:30;;;;;;;;;;;21.60;99.90;;;;;;5078136;28;20052;-76
2022/06/09 11:34:17;;;;;;;1.85;1.10;;;21.70;99.90;;;;;;5041447;28;19921;-77
2022/06/09 11:37:00;;;;;;;3.92;1.13;;;21.80;99.90;;;;;;5078593;28;20459;-76
2022/06/09 11:39:53;;;;;;;6.68;1.40;;;21.80;99.90;;;;;;5039177;28;20048;-76
2022/06/09 11:42:41;;;;;;;1.85;1.00;;;21.30;99.90;;;;;;5080153;28;20063;-76
2022/06/09 11:45:25;;;;;;;5.28;1.40;;;20.90;99.90;;;;;;5055223;28;20049;-74
2022/06/09 11:47:53;;;;;;;3.97;1.10;;;21.30;99.90;;;;;;5042880;28;20052;-77
2022/06/09 11:50:23;;;;;;;3.17;1.10;;;21.30;99.90;;;;;;5058484;28;20053;-76
2022/06/09 11:52:50;;;;;;;4.50;1.15;;;21.20;99.90;;;;;;5046652;28;20072;-75
2022/06/09 11:56:18;;;;;;;3.83;1.40;;;21.30;99.90;;;;;;5060612;28;20072;-75
2022/06/09 11:58:34;;;;;;;2.13;0.95;;;21.40;99.90;;;;;;5043049;28;20061;-76
2022/06/09 12:01:16;;;;;;;;;;;21.30;99.90;;;;;;5036707;28;20128;-76
2022/06/09 12:04:06;;;;;;;3.88;1.10;;;21.30;99.90;;;;;;5063172;28;20341;-78
2022/06/09 12:06:53;;;;;;;4.95;0.90;;;21.10;99.90;;;;;;5065639;28;20388;-75
2022/06/09 12:09:42;;;;;;;5.47;1.30;;;21.40;99.90;;;;;;5082845;28;20060;-76
2022/06/09 12:12:35;;;;;;;3.50;0.90;;;21.60;99.90;;;;;;5063138;28;20076;-75
2022/06/09 12:15:24;;;;;;;6.10;0.90;;;21.90;99.90;;;;;;5045287;28;20040;-75
2022/06/09 12:17:59;;;;;;;4.55;1.00;;;21.90;99.90;;;;;;5063418;28;20569;-76
2022/06/09 12:21:05;;;;;;;2.50;0.80;;;22.40;99.90;;;;;;5042606;28;20041;-76
2022/06/09 12:23:39;;;;;;;3.80;1.00;;;22.10;99.90;;;;;;4988207;28;20108;-76
2022/06/09 12:26:16;;;;;;;4.22;1.00;;;22.40;99.90;;;;;;5053644;28;20126;-77
2022/06/09 12:28:57;;;;;;;1.90;0.65;;;22.20;99.90;;;;;;5054726;28;20451;-75
2022/06/09 12:31:24;;;;;;;3.67;1.00;;;22.20;99.90;;;;;;5063509;28;20431;-77
2022/06/09 12:34:09;;;;;;;3.63;1.10;;;22.40;99.90;;;;;;5060212;28;20090;-78
2022/06/09 12:36:50;;;;;;;3.55;0.90;;;22.10;99.90;;;;;;5053571;28;20053;-76
2022/06/09 12:39:21;;;;;;;4.18;0.90;;;22.20;99.90;;;;;;5058646;28;20397;-77
2022/06/09 12:42:19;;;;;;;1.35;0.60;;;22.30;99.90;;;;;;5058180;28;20049;-76
2022/06/09 12:45:16;;;;;;;1.60;0.60;;;22.30;99.20;;;;;;5021475;28;20056;-76
2022/06/09 12:47:58;;;;;;;4.30;0.88;;;22.10;96.30;;;;;;5041758;28;20079;-76
2022/06/09 12:50:30;;;;;;;2.15;0.70;;;22.20;99.40;;;;;;5059821;28;20139;-76
2022/06/09 12:52:58;;;;;;;2.28;0.70;;;22.20;99.90;;;;;;5059423;28;20052;-75
2022/06/09 12:55:54;;;;;;;1.80;1.00;;;22.30;99.90;;;;;;5064352;28;20063;-75
2022/06/09 12:58:40;;;;;;;2.08;0.75;;;22.60;99.90;;;;;;5039509;28;20095;-76
2022/06/09 13:01:16;;;;;;;1.25;0.80;;;22.60;99.90;;;;;;5044063;28;20115;-77
2022/06/09 13:03:45;;;;;;;2.60;0.90;;;22.70;99.90;;;;;;5058391;28;20053;-76
2022/06/09 13:06:27;;;;;;;2.35;0.70;;;22.60;99.90;;;;;;5081625;28;20049;-76
2022/06/09 13:08:59;;;;;;;3.65;1.13;;;22.70;99.90;;;;;;5062909;28;20049;-77
2022/06/09 13:14:19;;;;;;;2.88;1.02;;;22.70;99.90;;;;;;5052648;28;20071;-76
2022/06/09 13:16:46;;;;;;;;;;;23.00;99.90;;;;;;5036464;28;20044;-76
2022/06/09 13:19:16;;;;;;;3.22;0.93;;;23.00;97.20;;;;;;5052838;28;19925;-76
2022/06/09 13:21:44;;;;;;;4.13;1.40;;;23.50;99.90;;;;;;5056333;28;20049;-77
2022/06/09 13:24:35;;;;;;;3.15;1.00;;;23.80;98.10;;;;;;5046300;28;20314;-78
2022/06/09 13:27:02;;;;;;;;;;;23.80;80.80;;;;;;5058196;28;20040;-76
2022/06/09 13:29:36;;;;;;;4.43;1.33;;;23.80;96.00;;;;;;5058305;28;19920;-77
2022/06/09 13:32:19;;;;;;;6.55;1.30;;;23.40;94.00;;;;;;5059826;28;20104;-76